sensor_id;sensor_type;location;lat;lon;timestamp;temperature;humidity
40255;DHT22;25973;52.368;4.940;2023-01-09T00:01:20;9.00;99.90
40255;DHT22;25973;52.368;4.940;2023-01-09T00:03:46;9.00;99.90
40255;DHT22;25973;52.368;4.940;2023-01-09T00:06:12;9.00;99.90
40255;DHT22;25973;52.368;4.940;2023-01-09T00:08:37;8.90;99.90
40255;DHT22;25973;52.368;4.940;2023-01-09T00:11:03;8.90;99.90
40255;DHT22;25973;52.368;4.940;2023-01-09T00:13:32;8.80;99.90
40255;DHT22;25973;52.368;4.940;2023-01-09T00:15:57;8.80;99.90
40255;DHT22;25973;52.368;4.940;2023-01-09T00:18:24;8.80;99.90
40255;DHT22;25973;52.368;4.940;2023-01-09T00:20:50;8.80;99.90
40255;DHT22;25973;52.368;4.940;2023-01-09T00:23:15;8.80;99.90
40255;DHT22;25973;52.368;4.940;2023-01-09T00:25:41;8.70;99.90
40255;DHT22;25973;52.368;4.940;2023-01-09T00:28:07;8.70;99.90
40255;DHT22;25973;52.368;4.940;2023-01-09T00:30:32;8.70;99.90
40255;DHT22;25973;52.368;4.940;2023-01-09T00:32:58;8.60;99.90
40255;DHT22;25973;52.368;4.940;2023-01-09T00:35:25;8.60;99.90
40255;DHT22;25973;52.368;4.940;2023-01-09T00:37:52;8.60;99.90
40255;DHT22;25973;52.368;4.940;2023-01-09T00:40:18;8.50;99.90
40255;DHT22;25973;52.368;4.940;2023-01-09T00:42:47;8.50;99.90
40255;DHT22;25973;52.368;4.940;2023-01-09T00:45:20;8.50;99.90
40255;DHT22;25973;52.368;4.940;2023-01-09T00:47:53;8.50;99.90
40255;DHT22;25973;52.368;4.940;2023-01-09T00:50:22;8.40;99.90
40255;DHT22;25973;52.368;4.940;2023-01-09T00:52:50;8.40;99.90
40255;DHT22;25973;52.368;4.940;2023-01-09T00:55:19;8.40;99.90
40255;DHT22;25973;52.368;4.940;2023-01-09T00:57:45;8.40;99.90
40255;DHT22;25973;52.368;4.940;2023-01-09T01:00:11;8.30;99.90
40255;DHT22;25973;52.368;4.940;2023-01-09T01:02:37;8.30;99.90
40255;DHT22;25973;52.368;4.940;2023-01-09T01:05:03;8.20;99.90
40255;DHT22;25973;52.368;4.940;2023-01-09T01:07:47;8.20;99.90
40255;DHT22;25973;52.368;4.940;2023-01-09T01:10:16;8.20;99.90
40255;DHT22;25973;52.368;4.940;2023-01-09T01:12:42;8.20;99.90
40255;DHT22;25973;52.368;4.940;2023-01-09T01:15:09;8.20;99.90
40255;DHT22;25973;52.368;4.940;2023-01-09T01:17:36;8.20;99.90
40255;DHT22;25973;52.368;4.940;2023-01-09T01:20:08;8.20;99.90
40255;DHT22;25973;52.368;4.940;2023-01-09T01:22:34;8.10;99.90
40255;DHT22;25973;52.368;4.940;2023-01-09T01:24:59;8.10;99.90
40255;DHT22;25973;52.368;4.940;2023-01-09T01:27:27;8.20;99.90
40255;DHT22;25973;52.368;4.940;2023-01-09T01:29:52;8.10;99.90
40255;DHT22;25973;52.368;4.940;2023-01-09T01:32:18;8.10;99.90
40255;DHT22;25973;52.368;4.940;2023-01-09T01:34:44;8.10;99.90
40255;DHT22;25973;52.368;4.940;2023-01-09T01:37:09;8.10;99.90
40255;DHT22;25973;52.368;4.940;2023-01-09T01:39:35;8.10;99.90
40255;DHT22;25973;52.368;4.940;2023-01-09T01:42:03;8.10;99.90
40255;DHT22;25973;52.368;4.940;2023-01-09T01:50:45;8.00;99.90
40255;DHT22;25973;52.368;4.940;2023-01-09T01:53:18;7.80;99.90
40255;DHT22;25973;52.368;4.940;2023-01-09T01:58:29;7.80;99.90
40255;DHT22;25973;52.368;4.940;2023-01-09T02:00:55;7.70;99.90
40255;DHT22;25973;52.368;4.940;2023-01-09T02:03:23;7.70;99.90
40255;DHT22;25973;52.368;4.940;2023-01-09T02:05:50;7.60;99.90
40255;DHT22;25973;52.368;4.940;2023-01-09T02:08:16;7.60;99.90
40255;DHT22;25973;52.368;4.940;2023-01-09T02:10:43;7.60;99.90
40255;DHT22;25973;52.368;4.940;2023-01-09T02:13:09;7.50;99.90
40255;DHT22;25973;52.368;4.940;2023-01-09T02:16:14;7.50;99.90
40255;DHT22;25973;52.368;4.940;2023-01-09T02:18:50;7.50;99.90
40255;DHT22;25973;52.368;4.940;2023-01-09T02:21:23;7.40;99.90
40255;DHT22;25973;52.368;4.940;2023-01-09T02:27:02;7.40;99.90
40255;DHT22;25973;52.368;4.940;2023-01-09T02:33:16;7.30;99.90
40255;DHT22;25973;52.368;4.940;2023-01-09T02:37:57;7.30;99.90
40255;DHT22;25973;52.368;4.940;2023-01-09T02:40:28;7.20;99.90
40255;DHT22;25973;52.368;4.940;2023-01-09T02:42:56;7.20;99.90
40255;DHT22;25973;52.368;4.940;2023-01-09T02:45:23;7.20;99.90
40255;DHT22;25973;52.368;4.940;2023-01-09T02:47:49;7.20;99.90
40255;DHT22;25973;52.368;4.940;2023-01-09T02:50:21;7.20;99.90
40255;DHT22;25973;52.368;4.940;2023-01-09T03:03:49;7.20;99.90
40255;DHT22;25973;52.368;4.940;2023-01-09T03:09:16;7.30;99.90
40255;DHT22;25973;52.368;4.940;2023-01-09T03:11:48;7.30;99.90
40255;DHT22;25973;52.368;4.940;2023-01-09T03:14:18;7.30;99.90
40255;DHT22;25973;52.368;4.940;2023-01-09T03:16:47;7.30;99.90
40255;DHT22;25973;52.368;4.940;2023-01-09T03:19:18;7.30;99.90
40255;DHT22;25973;52.368;4.940;2023-01-09T03:21:45;7.40;99.90
40255;DHT22;25973;52.368;4.940;2023-01-09T03:24:12;7.30;99.90
40255;DHT22;25973;52.368;4.940;2023-01-09T03:26:38;7.30;99.90
40255;DHT22;25973;52.368;4.940;2023-01-09T03:29:04;7.30;99.90
40255;DHT22;25973;52.368;4.940;2023-01-09T03:31:30;7.30;99.90
40255;DHT22;25973;52.368;4.940;2023-01-09T03:33:55;7.30;99.90
40255;DHT22;25973;52.368;4.940;2023-01-09T03:36:23;7.30;99.90
40255;DHT22;25973;52.368;4.940;2023-01-09T03:38:49;7.20;99.90
40255;DHT22;25973;52.368;4.940;2023-01-09T03:41:16;7.20;99.90
40255;DHT22;25973;52.368;4.940;2023-01-09T03:43:42;7.20;99.90
40255;DHT22;25973;52.368;4.940;2023-01-09T03:46:07;7.20;99.90
40255;DHT22;25973;52.368;4.940;2023-01-09T03:48:33;7.20;99.90
40255;DHT22;25973;52.368;4.940;2023-01-09T03:50:59;7.20;99.90
40255;DHT22;25973;52.368;4.940;2023-01-09T03:53:26;7.20;99.90
40255;DHT22;25973;52.368;4.940;2023-01-09T03:55:53;7.20;99.90
40255;DHT22;25973;52.368;4.940;2023-01-09T03:58:20;7.20;99.90
40255;DHT22;25973;52.368;4.940;2023-01-09T04:00:46;7.20;99.90
40255;DHT22;25973;52.368;4.940;2023-01-09T04:03:14;7.20;99.90
40255;DHT22;25973;52.368;4.940;2023-01-09T04:05:40;7.20;99.90
40255;DHT22;25973;52.368;4.940;2023-01-09T04:08:05;7.10;99.90
40255;DHT22;25973;52.368;4.940;2023-01-09T04:10:31;7.10;99.90
40255;DHT22;25973;52.368;4.940;2023-01-09T04:12:57;7.10;99.90
40255;DHT22;25973;52.368;4.940;2023-01-09T04:15:23;7.10;99.90
40255;DHT22;25973;52.368;4.940;2023-01-09T04:17:49;7.10;99.90
40255;DHT22;25973;52.368;4.940;2023-01-09T04:20:15;7.10;99.90
40255;DHT22;25973;52.368;4.940;2023-01-09T04:22:40;7.10;99.90
40255;DHT22;25973;52.368;4.940;2023-01-09T04:25:06;7.10;99.90
40255;DHT22;25973;52.368;4.940;2023-01-09T04:27:32;7.10;99.90
40255;DHT22;25973;52.368;4.940;2023-01-09T04:30:01;7.10;99.90
40255;DHT22;25973;52.368;4.940;2023-01-09T04:32:26;7.10;99.90
40255;DHT22;25973;52.368;4.940;2023-01-09T04:34:53;7.10;99.90
40255;DHT22;25973;52.368;4.940;2023-01-09T04:37:19;7.00;99.90
40255;DHT22;25973;52.368;4.940;2023-01-09T04:39:45;7.00;99.90
40255;DHT22;25973;52.368;4.940;2023-01-09T04:42:11;7.00;99.90
40255;DHT22;25973;52.368;4.940;2023-01-09T04:44:37;7.00;99.90
40255;DHT22;25973;52.368;4.940;2023-01-09T04:47:03;7.00;99.90
40255;DHT22;25973;52.368;4.940;2023-01-09T04:49:28;7.00;99.90
40255;DHT22;25973;52.368;4.940;2023-01-09T04:51:54;7.00;99.90
40255;DHT22;25973;52.368;4.940;2023-01-09T04:54:20;7.00;99.90
40255;DHT22;25973;52.368;4.940;2023-01-09T04:56:46;7.00;99.90
40255;DHT22;25973;52.368;4.940;2023-01-09T04:59:11;7.00;99.90
40255;DHT22;25973;52.368;4.940;2023-01-09T05:01:37;6.90;99.90
40255;DHT22;25973;52.368;4.940;2023-01-09T05:04:03;7.00;99.90
40255;DHT22;25973;52.368;4.940;2023-01-09T05:06:29;6.90;99.90
40255;DHT22;25973;52.368;4.940;2023-01-09T05:08:55;6.90;99.90
40255;DHT22;25973;52.368;4.940;2023-01-09T05:11:21;6.90;99.90
40255;DHT22;25973;52.368;4.940;2023-01-09T05:13:47;6.90;99.90
40255;DHT22;25973;52.368;4.940;2023-01-09T05:16:12;6.90;99.90
40255;DHT22;25973;52.368;4.940;2023-01-09T05:18:38;6.90;99.90
40255;DHT22;25973;52.368;4.940;2023-01-09T05:21:03;6.90;99.90
40255;DHT22;25973;52.368;4.940;2023-01-09T05:23:29;6.90;99.90
40255;DHT22;25973;52.368;4.940;2023-01-09T05:25:55;6.90;99.90
40255;DHT22;25973;52.368;4.940;2023-01-09T05:28:20;6.80;99.90
40255;DHT22;25973;52.368;4.940;2023-01-09T05:30:46;6.80;99.90
40255;DHT22;25973;52.368;4.940;2023-01-09T05:33:12;6.80;99.90
40255;DHT22;25973;52.368;4.940;2023-01-09T05:35:38;6.80;99.90
40255;DHT22;25973;52.368;4.940;2023-01-09T05:38:04;6.90;99.90
40255;DHT22;25973;52.368;4.940;2023-01-09T05:40:30;6.90;99.90
40255;DHT22;25973;52.368;4.940;2023-01-09T05:42:56;6.90;99.90
40255;DHT22;25973;52.368;4.940;2023-01-09T05:45:21;6.90;99.90
40255;DHT22;25973;52.368;4.940;2023-01-09T05:47:47;6.90;99.90
40255;DHT22;25973;52.368;4.940;2023-01-09T05:50:13;6.90;99.90
40255;DHT22;25973;52.368;4.940;2023-01-09T05:52:39;6.90;99.90
40255;DHT22;25973;52.368;4.940;2023-01-09T05:55:06;6.90;99.90
40255;DHT22;25973;52.368;4.940;2023-01-09T05:57:31;6.90;99.90
40255;DHT22;25973;52.368;4.940;2023-01-09T05:59:57;6.90;99.90
40255;DHT22;25973;52.368;4.940;2023-01-09T06:02:23;6.90;99.90
40255;DHT22;25973;52.368;4.940;2023-01-09T06:04:48;6.90;99.90
40255;DHT22;25973;52.368;4.940;2023-01-09T06:07:14;6.90;99.90
40255;DHT22;25973;52.368;4.940;2023-01-09T06:09:40;6.90;99.90
40255;DHT22;25973;52.368;4.940;2023-01-09T06:12:06;6.90;99.90
40255;DHT22;25973;52.368;4.940;2023-01-09T06:14:31;7.00;99.90
40255;DHT22;25973;52.368;4.940;2023-01-09T06:16:57;7.00;99.90
40255;DHT22;25973;52.368;4.940;2023-01-09T06:19:22;7.10;99.90
40255;DHT22;25973;52.368;4.940;2023-01-09T06:21:48;7.10;99.90
40255;DHT22;25973;52.368;4.940;2023-01-09T06:24:14;7.10;99.90
40255;DHT22;25973;52.368;4.940;2023-01-09T06:26:39;7.10;99.90
40255;DHT22;25973;52.368;4.940;2023-01-09T06:29:05;7.20;99.90
40255;DHT22;25973;52.368;4.940;2023-01-09T06:31:32;7.20;99.90
40255;DHT22;25973;52.368;4.940;2023-01-09T06:33:57;7.20;99.90
40255;DHT22;25973;52.368;4.940;2023-01-09T06:36:23;7.20;99.90
40255;DHT22;25973;52.368;4.940;2023-01-09T06:38:48;7.10;99.90
40255;DHT22;25973;52.368;4.940;2023-01-09T06:41:14;7.10;99.90
40255;DHT22;25973;52.368;4.940;2023-01-09T06:43:39;7.10;99.90
40255;DHT22;25973;52.368;4.940;2023-01-09T06:46:05;7.10;99.90
40255;DHT22;25973;52.368;4.940;2023-01-09T06:48:32;7.20;99.90
40255;DHT22;25973;52.368;4.940;2023-01-09T06:50:57;7.20;99.90
40255;DHT22;25973;52.368;4.940;2023-01-09T06:53:23;7.20;99.90
40255;DHT22;25973;52.368;4.940;2023-01-09T06:55:49;7.20;99.90
40255;DHT22;25973;52.368;4.940;2023-01-09T06:58:14;7.20;99.90
40255;DHT22;25973;52.368;4.940;2023-01-09T07:00:40;7.20;99.90
40255;DHT22;25973;52.368;4.940;2023-01-09T07:03:06;7.20;99.90
40255;DHT22;25973;52.368;4.940;2023-01-09T07:05:36;7.20;99.90
40255;DHT22;25973;52.368;4.940;2023-01-09T07:08:02;7.20;99.90
40255;DHT22;25973;52.368;4.940;2023-01-09T07:10:28;7.30;99.90
40255;DHT22;25973;52.368;4.940;2023-01-09T07:12:53;7.30;99.90
40255;DHT22;25973;52.368;4.940;2023-01-09T07:15:19;7.30;99.90
40255;DHT22;25973;52.368;4.940;2023-01-09T07:17:45;7.30;99.90
40255;DHT22;25973;52.368;4.940;2023-01-09T07:20:11;7.30;99.90
40255;DHT22;25973;52.368;4.940;2023-01-09T07:22:36;7.30;99.90
40255;DHT22;25973;52.368;4.940;2023-01-09T07:25:02;7.40;99.90
40255;DHT22;25973;52.368;4.940;2023-01-09T07:27:28;7.50;99.90
40255;DHT22;25973;52.368;4.940;2023-01-09T07:29:53;7.60;99.90
40255;DHT22;25973;52.368;4.940;2023-01-09T07:32:19;7.70;99.90
40255;DHT22;25973;52.368;4.940;2023-01-09T07:34:45;7.70;99.90
40255;DHT22;25973;52.368;4.940;2023-01-09T07:37:10;7.80;99.90
40255;DHT22;25973;52.368;4.940;2023-01-09T07:39:36;7.80;99.90
40255;DHT22;25973;52.368;4.940;2023-01-09T07:42:01;7.80;99.90
40255;DHT22;25973;52.368;4.940;2023-01-09T07:44:27;7.80;99.90
40255;DHT22;25973;52.368;4.940;2023-01-09T07:46:52;7.80;99.90
40255;DHT22;25973;52.368;4.940;2023-01-09T07:49:18;7.90;99.90
40255;DHT22;25973;52.368;4.940;2023-01-09T07:51:43;7.90;99.90
40255;DHT22;25973;52.368;4.940;2023-01-09T07:54:10;7.90;99.90
40255;DHT22;25973;52.368;4.940;2023-01-09T07:56:37;7.90;99.90
40255;DHT22;25973;52.368;4.940;2023-01-09T07:59:03;8.00;99.90
40255;DHT22;25973;52.368;4.940;2023-01-09T08:01:29;8.00;99.90
40255;DHT22;25973;52.368;4.940;2023-01-09T08:03:54;8.00;99.90
40255;DHT22;25973;52.368;4.940;2023-01-09T08:06:20;8.10;99.90
40255;DHT22;25973;52.368;4.940;2023-01-09T08:08:45;8.20;99.90
40255;DHT22;25973;52.368;4.940;2023-01-09T08:11:11;8.20;99.90
40255;DHT22;25973;52.368;4.940;2023-01-09T08:13:37;8.30;99.90
40255;DHT22;25973;52.368;4.940;2023-01-09T08:16:02;8.30;99.90
40255;DHT22;25973;52.368;4.940;2023-01-09T08:18:28;8.40;99.90
40255;DHT22;25973;52.368;4.940;2023-01-09T08:20:54;8.40;99.90
40255;DHT22;25973;52.368;4.940;2023-01-09T08:23:19;8.50;99.90
40255;DHT22;25973;52.368;4.940;2023-01-09T08:25:45;8.60;99.90
40255;DHT22;25973;52.368;4.940;2023-01-09T08:28:10;8.60;99.90
40255;DHT22;25973;52.368;4.940;2023-01-09T08:30:37;8.70;99.90
40255;DHT22;25973;52.368;4.940;2023-01-09T08:33:03;8.80;99.90
40255;DHT22;25973;52.368;4.940;2023-01-09T08:35:28;8.80;99.90
40255;DHT22;25973;52.368;4.940;2023-01-09T08:37:54;8.90;99.90
40255;DHT22;25973;52.368;4.940;2023-01-09T08:40:20;8.90;99.90
40255;DHT22;25973;52.368;4.940;2023-01-09T08:42:45;8.90;99.90
40255;DHT22;25973;52.368;4.940;2023-01-09T08:45:30;8.90;99.90
40255;DHT22;25973;52.368;4.940;2023-01-09T08:48:14;9.00;99.90
40255;DHT22;25973;52.368;4.940;2023-01-09T08:50:41;8.90;99.90
40255;DHT22;25973;52.368;4.940;2023-01-09T08:53:08;9.00;99.90
40255;DHT22;25973;52.368;4.940;2023-01-09T08:55:34;9.00;99.90
40255;DHT22;25973;52.368;4.940;2023-01-09T08:58:00;9.00;99.90
40255;DHT22;25973;52.368;4.940;2023-01-09T09:00:26;9.00;99.90
40255;DHT22;25973;52.368;4.940;2023-01-09T09:02:56;9.00;99.90
40255;DHT22;25973;52.368;4.940;2023-01-09T09:05:24;9.00;99.90
40255;DHT22;25973;52.368;4.940;2023-01-09T09:07:51;9.00;99.90
40255;DHT22;25973;52.368;4.940;2023-01-09T09:10:19;9.00;99.90
40255;DHT22;25973;52.368;4.940;2023-01-09T09:12:50;8.90;99.90
40255;DHT22;25973;52.368;4.940;2023-01-09T09:15:16;8.90;99.90
40255;DHT22;25973;52.368;4.940;2023-01-09T09:17:52;8.90;99.90
40255;DHT22;25973;52.368;4.940;2023-01-09T09:20:19;8.90;99.90
40255;DHT22;25973;52.368;4.940;2023-01-09T09:22:46;8.90;99.90
40255;DHT22;25973;52.368;4.940;2023-01-09T09:25:12;8.90;99.90
40255;DHT22;25973;52.368;4.940;2023-01-09T09:27:38;8.90;99.90
40255;DHT22;25973;52.368;4.940;2023-01-09T09:30:05;9.00;99.90
40255;DHT22;25973;52.368;4.940;2023-01-09T09:32:31;9.00;99.90
40255;DHT22;25973;52.368;4.940;2023-01-09T09:34:56;9.00;99.90
40255;DHT22;25973;52.368;4.940;2023-01-09T09:37:22;9.10;99.90
40255;DHT22;25973;52.368;4.940;2023-01-09T09:39:48;9.10;99.90
40255;DHT22;25973;52.368;4.940;2023-01-09T09:42:32;9.10;99.90
40255;DHT22;25973;52.368;4.940;2023-01-09T09:51:23;9.10;99.90
40255;DHT22;25973;52.368;4.940;2023-01-09T09:53:56;9.10;99.90
40255;DHT22;25973;52.368;4.940;2023-01-09T09:56:25;9.10;99.90
40255;DHT22;25973;52.368;4.940;2023-01-09T09:59:04;9.10;99.90
40255;DHT22;25973;52.368;4.940;2023-01-09T10:01:43;9.00;99.90
40255;DHT22;25973;52.368;4.940;2023-01-09T10:04:14;9.10;99.90
40255;DHT22;25973;52.368;4.940;2023-01-09T10:06:50;9.10;99.90
40255;DHT22;25973;52.368;4.940;2023-01-09T10:14:46;9.20;99.90
40255;DHT22;25973;52.368;4.940;2023-01-09T10:22:58;9.40;99.90
40255;DHT22;25973;52.368;4.940;2023-01-09T10:25:55;9.40;99.90
40255;DHT22;25973;52.368;4.940;2023-01-09T10:28:58;9.40;99.90
40255;DHT22;25973;52.368;4.940;2023-01-09T10:34:17;9.40;99.90
40255;DHT22;25973;52.368;4.940;2023-01-09T10:40:04;9.50;99.90
40255;DHT22;25973;52.368;4.940;2023-01-09T10:42:36;9.50;99.90
40255;DHT22;25973;52.368;4.940;2023-01-09T10:47:41;9.50;99.90
40255;DHT22;25973;52.368;4.940;2023-01-09T10:50:21;9.50;99.90
40255;DHT22;25973;52.368;4.940;2023-01-09T10:52:52;9.50;99.90
40255;DHT22;25973;52.368;4.940;2023-01-09T10:55:33;9.50;99.90
40255;DHT22;25973;52.368;4.940;2023-01-09T10:58:09;9.60;99.90
40255;DHT22;25973;52.368;4.940;2023-01-09T11:00:35;9.70;99.90
40255;DHT22;25973;52.368;4.940;2023-01-09T11:03:01;9.80;99.90
40255;DHT22;25973;52.368;4.940;2023-01-09T11:05:28;9.70;99.90
40255;DHT22;25973;52.368;4.940;2023-01-09T11:08:22;9.80;99.90
40255;DHT22;25973;52.368;4.940;2023-01-09T11:10:55;9.80;99.90
40255;DHT22;25973;52.368;4.940;2023-01-09T11:13:23;9.80;99.90
40255;DHT22;25973;52.368;4.940;2023-01-09T11:18:40;9.90;99.90
40255;DHT22;25973;52.368;4.940;2023-01-09T11:23:52;9.90;99.90
40255;DHT22;25973;52.368;4.940;2023-01-09T11:26:26;9.90;99.90
40255;DHT22;25973;52.368;4.940;2023-01-09T11:29:24;9.90;99.90
40255;DHT22;25973;52.368;4.940;2023-01-09T11:31:58;9.90;99.90
40255;DHT22;25973;52.368;4.940;2023-01-09T11:34:26;9.90;99.90
40255;DHT22;25973;52.368;4.940;2023-01-09T11:37:02;9.90;99.90
40255;DHT22;25973;52.368;4.940;2023-01-09T11:39:30;10.00;99.90
40255;DHT22;25973;52.368;4.940;2023-01-09T11:41:59;10.10;99.90
40255;DHT22;25973;52.368;4.940;2023-01-09T11:44:27;10.20;99.90
40255;DHT22;25973;52.368;4.940;2023-01-09T11:46:53;10.30;99.90
40255;DHT22;25973;52.368;4.940;2023-01-09T11:49:24;10.40;99.90
40255;DHT22;25973;52.368;4.940;2023-01-09T11:52:03;10.40;99.90
40255;DHT22;25973;52.368;4.940;2023-01-09T11:54:31;10.40;99.90
40255;DHT22;25973;52.368;4.940;2023-01-09T11:56:59;10.40;99.90
40255;DHT22;25973;52.368;4.940;2023-01-09T11:59:27;10.30;99.90
40255;DHT22;25973;52.368;4.940;2023-01-09T12:11:02;9.90;99.90
40255;DHT22;25973;52.368;4.940;2023-01-09T12:13:54;9.80;99.90
40255;DHT22;25973;52.368;4.940;2023-01-09T12:16:49;9.80;99.90
40255;DHT22;25973;52.368;4.940;2023-01-09T12:27:34;9.40;99.90
40255;DHT22;25973;52.368;4.940;2023-01-09T12:35:35;9.40;99.90
40255;DHT22;25973;52.368;4.940;2023-01-09T12:46:40;9.30;99.90
40255;DHT22;25973;52.368;4.940;2023-01-09T12:52:27;9.40;99.90
40255;DHT22;25973;52.368;4.940;2023-01-09T12:55:18;9.60;99.90
40255;DHT22;25973;52.368;4.940;2023-01-09T12:57:49;9.60;99.90
40255;DHT22;25973;52.368;4.940;2023-01-09T13:05:56;9.70;99.90
40255;DHT22;25973;52.368;4.940;2023-01-09T13:08:32;9.70;99.90
40255;DHT22;25973;52.368;4.940;2023-01-09T13:11:09;9.70;99.90
40255;DHT22;25973;52.368;4.940;2023-01-09T13:13:53;9.70;99.90
40255;DHT22;25973;52.368;4.940;2023-01-09T13:16:25;9.70;99.90
40255;DHT22;25973;52.368;4.940;2023-01-09T13:19:04;9.60;99.90
40255;DHT22;25973;52.368;4.940;2023-01-09T13:21:31;9.60;99.90
40255;DHT22;25973;52.368;4.940;2023-01-09T13:26:47;9.60;99.90
40255;DHT22;25973;52.368;4.940;2023-01-09T13:34:14;9.60;99.90
40255;DHT22;25973;52.368;4.940;2023-01-09T13:36:46;9.60;99.90
40255;DHT22;25973;52.368;4.940;2023-01-09T13:39:24;9.60;99.90
40255;DHT22;25973;52.368;4.940;2023-01-09T13:41:57;9.50;99.90
40255;DHT22;25973;52.368;4.940;2023-01-09T13:44:43;9.40;99.90
40255;DHT22;25973;52.368;4.940;2023-01-09T13:52:40;9.50;99.90
40255;DHT22;25973;52.368;4.940;2023-01-09T13:57:43;9.40;99.90
40255;DHT22;25973;52.368;4.940;2023-01-09T14:06:01;9.50;99.90
40255;DHT22;25973;52.368;4.940;2023-01-09T14:08:03;9.40;99.90
40255;DHT22;25973;52.368;4.940;2023-01-09T14:10:37;9.40;99.90
40255;DHT22;25973;52.368;4.940;2023-01-09T14:15:40;9.50;99.90
40255;DHT22;25973;52.368;4.940;2023-01-09T14:18:23;9.50;99.90
40255;DHT22;25973;52.368;4.940;2023-01-09T14:20:59;9.50;99.90
40255;DHT22;25973;52.368;4.940;2023-01-09T14:23:29;9.60;99.90
40255;DHT22;25973;52.368;4.940;2023-01-09T14:25:56;9.70;99.90
40255;DHT22;25973;52.368;4.940;2023-01-09T14:28:26;9.60;99.90
40255;DHT22;25973;52.368;4.940;2023-01-09T14:38:50;9.70;99.90
40255;DHT22;25973;52.368;4.940;2023-01-09T14:41:32;9.70;99.90
40255;DHT22;25973;52.368;4.940;2023-01-09T14:46:47;9.80;99.90
40255;DHT22;25973;52.368;4.940;2023-01-09T14:49:39;9.70;99.90
40255;DHT22;25973;52.368;4.940;2023-01-09T14:52:28;9.60;99.90
40255;DHT22;25973;52.368;4.940;2023-01-09T14:54:59;9.50;99.90
40255;DHT22;25973;52.368;4.940;2023-01-09T14:57:29;9.50;99.90
40255;DHT22;25973;52.368;4.940;2023-01-09T15:00:04;9.50;99.90
40255;DHT22;25973;52.368;4.940;2023-01-09T15:02:30;9.50;99.90
40255;DHT22;25973;52.368;4.940;2023-01-09T15:05:00;9.40;99.90
40255;DHT22;25973;52.368;4.940;2023-01-09T15:07:29;9.40;99.90
40255;DHT22;25973;52.368;4.940;2023-01-09T15:10:03;9.40;99.90
40255;DHT22;25973;52.368;4.940;2023-01-09T15:12:30;9.30;99.90
40255;DHT22;25973;52.368;4.940;2023-01-09T15:14:59;9.30;99.90
40255;DHT22;25973;52.368;4.940;2023-01-09T15:17:29;9.30;99.90
40255;DHT22;25973;52.368;4.940;2023-01-09T15:19:57;9.30;99.90
40255;DHT22;25973;52.368;4.940;2023-01-09T15:22:32;9.20;99.90
40255;DHT22;25973;52.368;4.940;2023-01-09T15:25:11;9.20;99.90
40255;DHT22;25973;52.368;4.940;2023-01-09T15:27:49;9.20;99.90
40255;DHT22;25973;52.368;4.940;2023-01-09T15:30:23;9.30;99.90
40255;DHT22;25973;52.368;4.940;2023-01-09T15:32:50;9.30;99.90
40255;DHT22;25973;52.368;4.940;2023-01-09T15:35:17;9.30;99.90
40255;DHT22;25973;52.368;4.940;2023-01-09T15:37:43;9.40;99.90
40255;DHT22;25973;52.368;4.940;2023-01-09T15:40:18;9.40;99.90
40255;DHT22;25973;52.368;4.940;2023-01-09T15:42:47;9.50;99.90
40255;DHT22;25973;52.368;4.940;2023-01-09T15:45:32;9.50;99.90
40255;DHT22;25973;52.368;4.940;2023-01-09T15:50:52;9.50;99.90
40255;DHT22;25973;52.368;4.940;2023-01-09T15:53:20;9.50;99.90
40255;DHT22;25973;52.368;4.940;2023-01-09T15:58:38;9.50;99.90
40255;DHT22;25973;52.368;4.940;2023-01-09T16:03:53;9.50;99.90
40255;DHT22;25973;52.368;4.940;2023-01-09T16:06:28;9.50;99.90
40255;DHT22;25973;52.368;4.940;2023-01-09T16:08:56;9.50;99.90
40255;DHT22;25973;52.368;4.940;2023-01-09T16:11:36;9.50;99.90
40255;DHT22;25973;52.368;4.940;2023-01-09T16:14:35;9.50;99.90
40255;DHT22;25973;52.368;4.940;2023-01-09T16:17:10;9.40;99.90
40255;DHT22;25973;52.368;4.940;2023-01-09T16:19:56;9.40;99.90
40255;DHT22;25973;52.368;4.940;2023-01-09T16:22:27;9.40;99.90
40255;DHT22;25973;52.368;4.940;2023-01-09T16:24:59;9.40;99.90
40255;DHT22;25973;52.368;4.940;2023-01-09T16:29:56;9.40;99.90
40255;DHT22;25973;52.368;4.940;2023-01-09T16:34:58;9.40;99.90
40255;DHT22;25973;52.368;4.940;2023-01-09T16:37:24;9.40;99.90
40255;DHT22;25973;52.368;4.940;2023-01-09T16:42:46;9.30;99.90
40255;DHT22;25973;52.368;4.940;2023-01-09T16:45:30;9.30;99.90
40255;DHT22;25973;52.368;4.940;2023-01-09T16:47:56;9.30;99.90
40255;DHT22;25973;52.368;4.940;2023-01-09T16:50:23;9.30;99.90
40255;DHT22;25973;52.368;4.940;2023-01-09T16:52:50;9.30;99.90
40255;DHT22;25973;52.368;4.940;2023-01-09T16:55:16;9.30;99.90
40255;DHT22;25973;52.368;4.940;2023-01-09T16:57:42;9.20;99.90
40255;DHT22;25973;52.368;4.940;2023-01-09T17:00:18;9.20;99.90
40255;DHT22;25973;52.368;4.940;2023-01-09T17:02:44;9.20;99.90
40255;DHT22;25973;52.368;4.940;2023-01-09T17:05:10;9.20;99.90
40255;DHT22;25973;52.368;4.940;2023-01-09T17:07:36;9.20;99.90
40255;DHT22;25973;52.368;4.940;2023-01-09T17:10:03;9.30;99.90
40255;DHT22;25973;52.368;4.940;2023-01-09T17:12:29;9.20;99.90
40255;DHT22;25973;52.368;4.940;2023-01-09T17:14:55;9.10;99.90
40255;DHT22;25973;52.368;4.940;2023-01-09T17:17:21;9.00;99.90
40255;DHT22;25973;52.368;4.940;2023-01-09T17:19:49;8.90;99.90
40255;DHT22;25973;52.368;4.940;2023-01-09T17:22:15;8.80;99.90
40255;DHT22;25973;52.368;4.940;2023-01-09T17:24:40;8.70;99.90
40255;DHT22;25973;52.368;4.940;2023-01-09T17:27:35;8.70;99.90
40255;DHT22;25973;52.368;4.940;2023-01-09T17:30:20;8.60;99.90
40255;DHT22;25973;52.368;4.940;2023-01-09T17:32:47;8.60;99.90
40255;DHT22;25973;52.368;4.940;2023-01-09T17:35:13;8.50;99.90
40255;DHT22;25973;52.368;4.940;2023-01-09T17:37:40;8.50;99.90
40255;DHT22;25973;52.368;4.940;2023-01-09T17:40:21;8.40;99.90
40255;DHT22;25973;52.368;4.940;2023-01-09T17:42:46;8.30;99.90
40255;DHT22;25973;52.368;4.940;2023-01-09T17:45:13;8.30;99.90
40255;DHT22;25973;52.368;4.940;2023-01-09T17:47:39;8.30;99.90
40255;DHT22;25973;52.368;4.940;2023-01-09T17:50:05;8.30;99.90
40255;DHT22;25973;52.368;4.940;2023-01-09T17:52:31;8.30;99.90
40255;DHT22;25973;52.368;4.940;2023-01-09T17:54:57;8.30;99.90
40255;DHT22;25973;52.368;4.940;2023-01-09T17:57:30;8.30;99.90
40255;DHT22;25973;52.368;4.940;2023-01-09T17:59:55;8.30;99.90
40255;DHT22;25973;52.368;4.940;2023-01-09T18:02:21;8.30;99.90
40255;DHT22;25973;52.368;4.940;2023-01-09T18:04:46;8.30;99.90
40255;DHT22;25973;52.368;4.940;2023-01-09T18:07:16;8.30;99.90
40255;DHT22;25973;52.368;4.940;2023-01-09T18:09:42;8.40;99.90
40255;DHT22;25973;52.368;4.940;2023-01-09T18:12:09;8.30;99.90
40255;DHT22;25973;52.368;4.940;2023-01-09T18:14:35;8.30;99.90
40255;DHT22;25973;52.368;4.940;2023-01-09T18:17:03;8.30;99.90
40255;DHT22;25973;52.368;4.940;2023-01-09T18:19:30;8.30;99.90
40255;DHT22;25973;52.368;4.940;2023-01-09T18:21:56;8.20;99.90
40255;DHT22;25973;52.368;4.940;2023-01-09T18:24:23;8.20;99.90
40255;DHT22;25973;52.368;4.940;2023-01-09T18:26:49;8.20;99.90
40255;DHT22;25973;52.368;4.940;2023-01-09T18:29:15;8.10;99.90
40255;DHT22;25973;52.368;4.940;2023-01-09T18:31:41;8.10;99.90